sensor_id;sensor_type;location;lat;lon;timestamp;pressure;altitude;pressure_sealevel;temperature;humidity
49423;BME280;36998;51.974;20.150;2022-08-03T00:02:17;100340.94;;;19.13;70.94
49423;BME280;36998;51.974;20.150;2022-08-03T00:04:43;100339.47;;;19.11;70.83
49423;BME280;36998;51.974;20.150;2022-08-03T00:07:08;100341.16;;;19.12;70.82
49423;BME280;36998;51.974;20.150;2022-08-03T00:09:34;100337.56;;;19.11;70.69
49423;BME280;36998;51.974;20.150;2022-08-03T00:11:59;100344.31;;;19.09;70.54
49423;BME280;36998;51.974;20.150;2022-08-03T00:14:25;100337.59;;;19.05;70.45
49423;BME280;36998;51.974;20.150;2022-08-03T00:16:50;100338.25;;;19.00;70.53
49423;BME280;36998;51.974;20.150;2022-08-03T00:19:15;100340.13;;;19.00;70.68
49423;BME280;36998;51.974;20.150;2022-08-03T00:21:41;100346.69;;;18.99;70.58
49423;BME280;36998;51.974;20.150;2022-08-03T00:24:06;100353.22;;;18.98;70.69
49423;BME280;36998;51.974;20.150;2022-08-03T00:26:32;100343.78;;;18.93;70.88
49423;BME280;36998;51.974;20.150;2022-08-03T00:28:57;100347.53;;;18.92;70.90
49423;BME280;36998;51.974;20.150;2022-08-03T00:31:23;100349.03;;;18.88;70.78
49423;BME280;36998;51.974;20.150;2022-08-03T00:33:48;100346.31;;;18.88;70.80
49423;BME280;36998;51.974;20.150;2022-08-03T00:36:14;100345.91;;;18.85;71.19
49423;BME280;36998;51.974;20.150;2022-08-03T00:38:39;100349.91;;;18.82;71.43
49423;BME280;36998;51.974;20.150;2022-08-03T00:41:05;100347.16;;;18.82;71.06
49423;BME280;36998;51.974;20.150;2022-08-03T00:43:30;100348.66;;;18.78;71.39
49423;BME280;36998;51.974;20.150;2022-08-03T00:45:56;100353.06;;;18.79;71.15
49423;BME280;36998;51.974;20.150;2022-08-03T00:48:21;100353.72;;;18.75;71.72
49423;BME280;36998;51.974;20.150;2022-08-03T00:50:47;100352.25;;;18.72;71.47
49423;BME280;36998;51.974;20.150;2022-08-03T00:53:13;100351.81;;;18.68;71.90
49423;BME280;36998;51.974;20.150;2022-08-03T00:55:40;100352.25;;;18.65;71.71
49423;BME280;36998;51.974;20.150;2022-08-03T00:58:06;100348.88;;;18.63;71.74
49423;BME280;36998;51.974;20.150;2022-08-03T01:00:34;100346.34;;;18.62;71.83
49423;BME280;36998;51.974;20.150;2022-08-03T01:03:01;100345.94;;;18.58;71.89
49423;BME280;36998;51.974;20.150;2022-08-03T01:05:28;100347.84;;;18.58;71.77
49423;BME280;36998;51.974;20.150;2022-08-03T01:11:26;100336.50;;;18.54;72.00
49423;BME280;36998;51.974;20.150;2022-08-03T01:14:12;100336.06;;;18.51;71.96
49423;BME280;36998;51.974;20.150;2022-08-03T01:17:04;100342.41;;;18.44;71.94
49423;BME280;36998;51.974;20.150;2022-08-03T01:19:45;100344.50;;;18.42;71.97
49423;BME280;36998;51.974;20.150;2022-08-03T01:30:34;100343.06;;;18.27;72.17
49423;BME280;36998;51.974;20.150;2022-08-03T01:33:08;100343.06;;;18.27;72.32
49423;BME280;36998;51.974;20.150;2022-08-03T01:35:45;100350.63;;;18.24;72.45
49423;BME280;36998;51.974;20.150;2022-08-03T01:38:40;100345.78;;;18.20;72.13
49423;BME280;36998;51.974;20.150;2022-08-03T01:41:10;100346.22;;;18.17;72.63
49423;BME280;36998;51.974;20.150;2022-08-03T01:43:38;100347.47;;;18.14;72.62
49423;BME280;36998;51.974;20.150;2022-08-03T01:46:06;100340.34;;;18.13;72.58
49423;BME280;36998;51.974;20.150;2022-08-03T01:48:35;100342.00;;;18.14;72.63
49423;BME280;36998;51.974;20.150;2022-08-03T01:51:02;100342.22;;;18.13;72.77
49423;BME280;36998;51.974;20.150;2022-08-03T01:53:30;100336.97;;;18.11;72.44
49423;BME280;36998;51.974;20.150;2022-08-03T01:56:01;100341.81;;;18.09;72.82
49423;BME280;36998;51.974;20.150;2022-08-03T01:58:28;100335.50;;;18.09;72.74
49423;BME280;36998;51.974;20.150;2022-08-03T02:00:55;100334.22;;;18.05;72.90
49423;BME280;36998;51.974;20.150;2022-08-03T02:03:25;100343.91;;;18.07;73.04
49423;BME280;36998;51.974;20.150;2022-08-03T02:05:54;100337.84;;;18.05;73.33
49423;BME280;36998;51.974;20.150;2022-08-03T02:08:23;100329.63;;;18.05;73.47
49423;BME280;36998;51.974;20.150;2022-08-03T02:10:50;100334.22;;;18.05;73.40
49423;BME280;36998;51.974;20.150;2022-08-03T02:13:17;100329.63;;;18.05;73.89
49423;BME280;36998;51.974;20.150;2022-08-03T02:15:43;100333.19;;;18.06;73.78
49423;BME280;36998;51.974;20.150;2022-08-03T02:18:10;100330.66;;;18.04;73.80
49423;BME280;36998;51.974;20.150;2022-08-03T02:20:37;100326.03;;;18.05;74.04
49423;BME280;36998;51.974;20.150;2022-08-03T02:23:04;100323.94;;;18.07;73.88
49423;BME280;36998;51.974;20.150;2022-08-03T02:25:32;100329.41;;;18.07;73.91
49423;BME280;36998;51.974;20.150;2022-08-03T02:28:09;100330.06;;;18.09;73.65
49423;BME280;36998;51.974;20.150;2022-08-03T02:30:37;100332.78;;;18.09;73.67
49423;BME280;36998;51.974;20.150;2022-08-03T02:33:10;100333.19;;;18.12;73.54
49423;BME280;36998;51.974;20.150;2022-08-03T02:35:38;100332.78;;;18.09;73.76
49423;BME280;36998;51.974;20.150;2022-08-03T02:38:06;100323.28;;;18.11;73.69
49423;BME280;36998;51.974;20.150;2022-08-03T02:40:33;100332.34;;;18.12;73.44
49423;BME280;36998;51.974;20.150;2022-08-03T02:43:02;100328.97;;;18.10;73.43
49423;BME280;36998;51.974;20.150;2022-08-03T02:45:31;100323.53;;;18.10;73.51
49423;BME280;36998;51.974;20.150;2022-08-03T02:48:02;100328.16;;;18.09;73.61
49423;BME280;36998;51.974;20.150;2022-08-03T02:50:29;100332.34;;;18.12;73.47
49423;BME280;36998;51.974;20.150;2022-08-03T02:52:56;100331.31;;;18.13;73.47
49423;BME280;36998;51.974;20.150;2022-08-03T02:55:27;100334.88;;;18.13;73.68
49423;BME280;36998;51.974;20.150;2022-08-03T02:57:59;100339.06;;;18.16;73.68
49423;BME280;36998;51.974;20.150;2022-08-03T03:00:30;100328.16;;;18.16;73.82
49423;BME280;36998;51.974;20.150;2022-08-03T03:02:57;100336.34;;;18.16;73.74
49423;BME280;36998;51.974;20.150;2022-08-03T03:05:24;100349.38;;;18.20;73.39
49423;BME280;36998;51.974;20.150;2022-08-03T03:07:50;100343.28;;;18.18;73.65
49423;BME280;36998;51.974;20.150;2022-08-03T03:10:16;100348.13;;;18.16;73.65
49423;BME280;36998;51.974;20.150;2022-08-03T03:12:42;100347.28;;;18.16;73.41
49423;BME280;36998;51.974;20.150;2022-08-03T03:15:10;100346.22;;;18.17;73.54
49423;BME280;36998;51.974;20.150;2022-08-03T03:17:36;100348.94;;;18.17;73.38
49423;BME280;36998;51.974;20.150;2022-08-03T03:20:25;100348.34;;;18.21;73.21
49423;BME280;36998;51.974;20.150;2022-08-03T03:23:29;100347.47;;;18.21;73.09
49423;BME280;36998;51.974;20.150;2022-08-03T03:26:01;100352.50;;;18.24;73.19
49423;BME280;36998;51.974;20.150;2022-08-03T03:28:27;100348.75;;;18.25;73.04
49423;BME280;36998;51.974;20.150;2022-08-03T03:30:52;100350.41;;;18.26;73.05
49423;BME280;36998;51.974;20.150;2022-08-03T03:33:18;100351.25;;;18.33;72.89
49423;BME280;36998;51.974;20.150;2022-08-03T03:35:44;100352.91;;;18.34;73.03
49423;BME280;36998;51.974;20.150;2022-08-03T03:38:11;100349.75;;;18.37;72.90
49423;BME280;36998;51.974;20.150;2022-08-03T03:40:37;100350.41;;;18.39;72.87
49423;BME280;36998;51.974;20.150;2022-08-03T03:43:07;100354.81;;;18.40;72.98
49423;BME280;36998;51.974;20.150;2022-08-03T03:45:34;100352.72;;;18.42;72.85
49423;BME280;36998;51.974;20.150;2022-08-03T03:48:00;100350.81;;;18.43;72.87
49423;BME280;36998;51.974;20.150;2022-08-03T03:50:26;100355.03;;;18.45;72.86
49423;BME280;36998;51.974;20.150;2022-08-03T03:52:52;100356.25;;;18.49;72.53
49423;BME280;36998;51.974;20.150;2022-08-03T03:55:18;100352.03;;;18.54;72.49
49423;BME280;36998;51.974;20.150;2022-08-03T03:57:43;100362.13;;;18.60;72.79
49423;BME280;36998;51.974;20.150;2022-08-03T04:00:11;100357.72;;;18.65;72.29
49423;BME280;36998;51.974;20.150;2022-08-03T04:02:37;100366.56;;;18.74;72.41
49423;BME280;36998;51.974;20.150;2022-08-03T04:05:04;100366.31;;;18.82;72.34
49423;BME280;36998;51.974;20.150;2022-08-03T04:07:58;100370.28;;;18.93;72.18
49423;BME280;36998;51.974;20.150;2022-08-03T04:10:45;100365.41;;;19.02;71.83
49423;BME280;36998;51.974;20.150;2022-08-03T04:13:35;100370.84;;;19.08;71.87
49423;BME280;36998;51.974;20.150;2022-08-03T04:16:02;100366.81;;;19.17;71.67
49423;BME280;36998;51.974;20.150;2022-08-03T04:18:30;100367.63;;;19.25;71.66
49423;BME280;36998;51.974;20.150;2022-08-03T04:21:01;100368.81;;;19.35;71.11
49423;BME280;36998;51.974;20.150;2022-08-03T04:23:30;100378.69;;;19.43;70.97
49423;BME280;36998;51.974;20.150;2022-08-03T04:25:56;100374.66;;;19.52;70.88
49423;BME280;36998;51.974;20.150;2022-08-03T04:28:23;100373.09;;;19.63;70.31
49423;BME280;36998;51.974;20.150;2022-08-03T04:30:50;100374.94;;;19.76;70.13
49423;BME280;36998;51.974;20.150;2022-08-03T04:33:20;100383.06;;;19.89;69.53
49423;BME280;36998;51.974;20.150;2022-08-03T04:35:48;100381.91;;;20.03;69.48
49423;BME280;36998;51.974;20.150;2022-08-03T04:38:17;100384.09;;;20.20;68.81
49423;BME280;36998;51.974;20.150;2022-08-03T04:40:45;100389.25;;;20.34;68.37
49423;BME280;36998;51.974;20.150;2022-08-03T04:43:11;100395.06;;;20.45;68.14
49423;BME280;36998;51.974;20.150;2022-08-03T04:45:40;100389.69;;;20.56;67.44
49423;BME280;36998;51.974;20.150;2022-08-03T04:48:06;100399.47;;;20.71;67.02
49423;BME280;36998;51.974;20.150;2022-08-03T04:50:32;100395.75;;;20.84;66.58
49423;BME280;36998;51.974;20.150;2022-08-03T04:53:07;100401.47;;;21.00;66.30
49423;BME280;36998;51.974;20.150;2022-08-03T04:55:35;100403.69;;;21.10;65.82
49423;BME280;36998;51.974;20.150;2022-08-03T04:58:03;100404.19;;;21.19;65.65
49423;BME280;36998;51.974;20.150;2022-08-03T05:00:29;100400.69;;;21.30;65.19
49423;BME280;36998;51.974;20.150;2022-08-03T05:02:54;100400.16;;;21.40;64.92
49423;BME280;36998;51.974;20.150;2022-08-03T05:05:21;100395.41;;;21.47;64.40
49423;BME280;36998;51.974;20.150;2022-08-03T05:07:47;100402.94;;;21.51;64.15
49423;BME280;36998;51.974;20.150;2022-08-03T05:10:30;100404.66;;;21.53;64.37
49423;BME280;36998;51.974;20.150;2022-08-03T05:12:56;100405.47;;;21.53;64.11
49423;BME280;36998;51.974;20.150;2022-08-03T05:15:23;100404.41;;;21.54;63.82
49423;BME280;36998;51.974;20.150;2022-08-03T05:17:48;100418.31;;;21.59;63.95
49423;BME280;36998;51.974;20.150;2022-08-03T05:20:14;100399.66;;;21.61;64.05
49423;BME280;36998;51.974;20.150;2022-08-03T05:22:39;100400.16;;;21.70;63.05
49423;BME280;36998;51.974;20.150;2022-08-03T05:25:05;100401.16;;;21.76;62.58
49423;BME280;36998;51.974;20.150;2022-08-03T05:27:31;100404.25;;;21.79;61.92
49423;BME280;36998;51.974;20.150;2022-08-03T05:29:56;100403.34;;;21.85;61.78
49423;BME280;36998;51.974;20.150;2022-08-03T05:32:23;100400.94;;;21.89;61.46
49423;BME280;36998;51.974;20.150;2022-08-03T05:34:48;100405.16;;;21.91;61.52
49423;BME280;36998;51.974;20.150;2022-08-03T05:37:14;100408.84;;;21.97;61.02
49423;BME280;36998;51.974;20.150;2022-08-03T05:39:45;100408.16;;;22.02;60.67
49423;BME280;36998;51.974;20.150;2022-08-03T05:42:10;100409.59;;;22.04;60.53
49423;BME280;36998;51.974;20.150;2022-08-03T05:44:36;100404.22;;;22.09;60.39
49423;BME280;36998;51.974;20.150;2022-08-03T05:47:23;100408.34;;;22.18;60.46
49423;BME280;36998;51.974;20.150;2022-08-03T05:49:51;100417.94;;;22.28;60.60
49423;BME280;36998;51.974;20.150;2022-08-03T05:52:16;100412.06;;;22.36;60.39
49423;BME280;36998;51.974;20.150;2022-08-03T05:54:42;100423.91;;;22.48;60.21
49423;BME280;36998;51.974;20.150;2022-08-03T05:57:08;100415.31;;;22.56;60.07
49423;BME280;36998;51.974;20.150;2022-08-03T05:59:34;100418.44;;;22.60;59.89
49423;BME280;36998;51.974;20.150;2022-08-03T06:02:02;100419.28;;;22.60;59.90
49423;BME280;36998;51.974;20.150;2022-08-03T06:04:27;100422.59;;;22.62;60.00
49423;BME280;36998;51.974;20.150;2022-08-03T06:06:54;100423.47;;;22.63;60.33
49423;BME280;36998;51.974;20.150;2022-08-03T06:09:19;100424.28;;;22.63;60.43
49423;BME280;36998;51.974;20.150;2022-08-03T06:11:45;100425.97;;;22.64;60.79
49423;BME280;36998;51.974;20.150;2022-08-03T06:14:10;100428.09;;;22.62;60.68
49423;BME280;36998;51.974;20.150;2022-08-03T06:16:36;100429.19;;;22.61;60.77
49423;BME280;36998;51.974;20.150;2022-08-03T06:19:01;100427.53;;;22.60;60.52
49423;BME280;36998;51.974;20.150;2022-08-03T06:21:27;100435.53;;;22.62;60.56
49423;BME280;36998;51.974;20.150;2022-08-03T06:23:53;100428.72;;;22.64;60.57
49423;BME280;36998;51.974;20.150;2022-08-03T06:26:57;100431.34;;;22.71;60.13
49423;BME280;36998;51.974;20.150;2022-08-03T06:29:23;100435.75;;;22.72;60.32
49423;BME280;36998;51.974;20.150;2022-08-03T06:31:49;100436.50;;;22.79;60.03
49423;BME280;36998;51.974;20.150;2022-08-03T06:34:14;100430.13;;;22.90;60.20
49423;BME280;36998;51.974;20.150;2022-08-03T06:36:40;100433.50;;;23.04;59.54
49423;BME280;36998;51.974;20.150;2022-08-03T06:39:08;100427.72;;;23.18;59.47
49423;BME280;36998;51.974;20.150;2022-08-03T06:41:37;100423.00;;;23.42;58.92
49423;BME280;36998;51.974;20.150;2022-08-03T06:44:06;100433.47;;;23.68;58.42
49423;BME280;36998;51.974;20.150;2022-08-03T06:46:31;100430.34;;;23.93;57.61
49423;BME280;36998;51.974;20.150;2022-08-03T06:48:57;100430.81;;;24.19;56.96
49423;BME280;36998;51.974;20.150;2022-08-03T06:51:22;100431.88;;;24.46;56.30
49423;BME280;36998;51.974;20.150;2022-08-03T06:53:48;100421.72;;;24.69;56.15
49423;BME280;36998;51.974;20.150;2022-08-03T06:56:14;100423.69;;;24.90;55.72
49423;BME280;36998;51.974;20.150;2022-08-03T06:58:39;100424.06;;;25.16;54.96
49423;BME280;36998;51.974;20.150;2022-08-03T07:01:05;100438.44;;;25.40;54.30
49423;BME280;36998;51.974;20.150;2022-08-03T07:03:30;100422.16;;;25.65;53.38
49423;BME280;36998;51.974;20.150;2022-08-03T07:05:56;100426.59;;;25.88;52.92
49423;BME280;36998;51.974;20.150;2022-08-03T07:08:21;100434.25;;;26.08;52.21
49423;BME280;36998;51.974;20.150;2022-08-03T07:10:48;100430.66;;;26.40;51.28
49423;BME280;36998;51.974;20.150;2022-08-03T07:13:14;100438.97;;;26.77;50.31
49423;BME280;36998;51.974;20.150;2022-08-03T07:15:39;100430.31;;;27.11;49.52
49423;BME280;36998;51.974;20.150;2022-08-03T07:18:05;100426.00;;;27.36;48.71
49423;BME280;36998;51.974;20.150;2022-08-03T07:20:31;100427.22;;;27.60;48.20
49423;BME280;36998;51.974;20.150;2022-08-03T07:22:56;100427.88;;;27.88;47.09
49423;BME280;36998;51.974;20.150;2022-08-03T07:25:22;100424.03;;;28.09;46.50
49423;BME280;36998;51.974;20.150;2022-08-03T07:27:48;100427.06;;;28.28;45.58
49423;BME280;36998;51.974;20.150;2022-08-03T07:30:14;100427.13;;;28.49;44.85
49423;BME280;36998;51.974;20.150;2022-08-03T07:32:40;100428.19;;;28.68;44.07
49423;BME280;36998;51.974;20.150;2022-08-03T07:35:07;100426.47;;;28.87;43.29
49423;BME280;36998;51.974;20.150;2022-08-03T07:37:33;100414.22;;;28.99;43.22
49423;BME280;36998;51.974;20.150;2022-08-03T07:40:00;100413.94;;;29.10;42.63
49423;BME280;36998;51.974;20.150;2022-08-03T07:42:27;100417.00;;;29.09;43.39
49423;BME280;36998;51.974;20.150;2022-08-03T07:44:54;100408.13;;;29.02;42.95
49423;BME280;36998;51.974;20.150;2022-08-03T07:47:25;100415.66;;;28.91;42.92
49423;BME280;36998;51.974;20.150;2022-08-03T07:49:52;100422.88;;;28.82;41.98
49423;BME280;36998;51.974;20.150;2022-08-03T07:52:19;100424.56;;;28.73;42.98
49423;BME280;36998;51.974;20.150;2022-08-03T07:55:05;100419.84;;;28.58;43.45
49423;BME280;36998;51.974;20.150;2022-08-03T07:58:04;100419.03;;;28.47;43.96
49423;BME280;36998;51.974;20.150;2022-08-03T08:00:30;100423.75;;;28.36;44.38
49423;BME280;36998;51.974;20.150;2022-08-03T08:02:56;100432.34;;;28.30;44.00
49423;BME280;36998;51.974;20.150;2022-08-03T08:05:22;100424.56;;;28.27;44.08
49423;BME280;36998;51.974;20.150;2022-08-03T08:07:47;100431.25;;;28.20;44.80
49423;BME280;36998;51.974;20.150;2022-08-03T08:10:14;100431.22;;;28.15;45.13
49423;BME280;36998;51.974;20.150;2022-08-03T08:12:39;100428.47;;;28.10;44.99
49423;BME280;36998;51.974;20.150;2022-08-03T08:15:06;100425.38;;;28.01;44.37
49423;BME280;36998;51.974;20.150;2022-08-03T08:17:45;100431.47;;;27.78;45.05
49423;BME280;36998;51.974;20.150;2022-08-03T08:20:25;100444.69;;;27.50;44.95
49423;BME280;36998;51.974;20.150;2022-08-03T08:22:51;100450.66;;;27.27;45.79
49423;BME280;36998;51.974;20.150;2022-08-03T08:25:19;100451.09;;;27.08;46.30
49423;BME280;36998;51.974;20.150;2022-08-03T08:27:48;100452.41;;;26.96;46.36
49423;BME280;36998;51.974;20.150;2022-08-03T08:30:16;100449.00;;;26.83;46.55
49423;BME280;36998;51.974;20.150;2022-08-03T08:32:45;100450.63;;;26.79;47.03
49423;BME280;36998;51.974;20.150;2022-08-03T08:35:11;100452.84;;;26.77;47.42
49423;BME280;36998;51.974;20.150;2022-08-03T08:37:40;100448.69;;;26.80;47.73
49423;BME280;36998;51.974;20.150;2022-08-03T08:40:08;100447.34;;;26.88;47.76
49423;BME280;36998;51.974;20.150;2022-08-03T08:42:36;100442.19;;;27.01;47.13
49423;BME280;36998;51.974;20.150;2022-08-03T08:45:03;100437.31;;;27.19;47.77
49423;BME280;36998;51.974;20.150;2022-08-03T08:47:40;100433.75;;;27.28;47.50
49423;BME280;36998;51.974;20.150;2022-08-03T08:50:09;100438.84;;;27.47;47.40
49423;BME280;36998;51.974;20.150;2022-08-03T08:52:35;100442.47;;;27.63;47.30
49423;BME280;36998;51.974;20.150;2022-08-03T08:55:06;100435.63;;;27.81;45.34
49423;BME280;36998;51.974;20.150;2022-08-03T08:57:37;100433.97;;;27.95;44.03
49423;BME280;36998;51.974;20.150;2022-08-03T09:00:07;100431.22;;;28.00;43.07
49423;BME280;36998;51.974;20.150;2022-08-03T09:02:36;100430.66;;;27.98;42.98
49423;BME280;36998;51.974;20.150;2022-08-03T09:05:02;100428.44;;;27.95;42.95
49423;BME280;36998;51.974;20.150;2022-08-03T09:07:28;100430.06;;;27.86;41.80
49423;BME280;36998;51.974;20.150;2022-08-03T09:09:54;100435.34;;;27.77;42.40
49423;BME280;36998;51.974;20.150;2022-08-03T09:12:20;100430.31;;;27.74;42.45
49423;BME280;36998;51.974;20.150;2022-08-03T09:14:46;100436.41;;;27.71;43.21
49423;BME280;36998;51.974;20.150;2022-08-03T09:17:11;100436.69;;;27.74;43.26
49423;BME280;36998;51.974;20.150;2022-08-03T09:19:37;100433.09;;;27.74;42.67
49423;BME280;36998;51.974;20.150;2022-08-03T09:22:13;100433.09;;;27.74;42.85
49423;BME280;36998;51.974;20.150;2022-08-03T09:24:56;100427.53;;;27.74;43.12
49423;BME280;36998;51.974;20.150;2022-08-03T09:27:22;100427.84;;;27.77;42.90
49423;BME280;36998;51.974;20.150;2022-08-03T09:29:49;100425.66;;;27.80;43.31
49423;BME280;36998;51.974;20.150;2022-08-03T09:32:23;100425.94;;;27.83;42.19
49423;BME280;36998;51.974;20.150;2022-08-03T09:34:50;100421.22;;;27.84;41.92
49423;BME280;36998;51.974;20.150;2022-08-03T09:37:18;100420.94;;;27.90;41.00
49423;BME280;36998;51.974;20.150;2022-08-03T09:39:48;100415.38;;;27.95;42.12
49423;BME280;36998;51.974;20.150;2022-08-03T09:42:15;100415.38;;;28.06;42.90
49423;BME280;36998;51.974;20.150;2022-08-03T09:44:45;100419.56;;;28.18;42.65
49423;BME280;36998;51.974;20.150;2022-08-03T09:47:16;100408.75;;;28.27;42.30
49423;BME280;36998;51.974;20.150;2022-08-03T09:50:00;100410.97;;;28.35;41.98
49423;BME280;36998;51.974;20.150;2022-08-03T09:52:44;100413.75;;;28.30;41.22
49423;BME280;36998;51.974;20.150;2022-08-03T09:55:13;100407.91;;;28.27;40.66
49423;BME280;36998;51.974;20.150;2022-08-03T09:57:39;100414.28;;;28.27;40.18
49423;BME280;36998;51.974;20.150;2022-08-03T10:00:15;100408.75;;;28.32;40.30
49423;BME280;36998;51.974;20.150;2022-08-03T10:02:43;100415.69;;;28.24;39.80
49423;BME280;36998;51.974;20.150;2022-08-03T10:05:11;100406.25;;;28.26;40.35
49423;BME280;36998;51.974;20.150;2022-08-03T10:08:13;100412.66;;;28.46;40.41
49423;BME280;36998;51.974;20.150;2022-08-03T10:10:43;100399.84;;;28.61;40.43
49423;BME280;36998;51.974;20.150;2022-08-03T10:13:14;100402.88;;;28.85;39.59
49423;BME280;36998;51.974;20.150;2022-08-03T10:15:43;100409.47;;;29.09;40.65
49423;BME280;36998;51.974;20.150;2022-08-03T10:18:09;100409.44;;;29.25;39.58
49423;BME280;36998;51.974;20.150;2022-08-03T10:20:44;100402.59;;;29.56;39.50
49423;BME280;36998;51.974;20.150;2022-08-03T10:23:13;100394.47;;;30.09;37.97
49423;BME280;36998;51.974;20.150;2022-08-03T10:25:43;100394.13;;;30.50;37.96
49423;BME280;36998;51.974;20.150;2022-08-03T10:28:13;100396.19;;;30.98;37.15
49423;BME280;36998;51.974;20.150;2022-08-03T10:30:43;100398.19;;;31.40;37.18
49423;BME280;36998;51.974;20.150;2022-08-03T10:33:16;100396.00;;;31.75;36.92
49423;BME280;36998;51.974;20.150;2022-08-03T10:35:47;100392.19;;;31.90;35.03
49423;BME280;36998;51.974;20.150;2022-08-03T10:38:25;100390.16;;;31.96;35.38
49423;BME280;36998;51.974;20.150;2022-08-03T10:40:53;100392.78;;;32.06;35.44
49423;BME280;36998;51.974;20.150;2022-08-03T10:43:33;100388.34;;;32.05;34.51
49423;BME280;36998;51.974;20.150;2022-08-03T10:46:02;100390.66;;;31.98;34.61
49423;BME280;36998;51.974;20.150;2022-08-03T10:48:30;100388.47;;;31.94;34.54
49423;BME280;36998;51.974;20.150;2022-08-03T10:50:56;100387.81;;;32.03;35.07
49423;BME280;36998;51.974;20.150;2022-08-03T10:53:51;100388.63;;;32.36;35.12
49423;BME280;36998;51.974;20.150;2022-08-03T11:02:11;100378.31;;;33.10;34.41
49423;BME280;36998;51.974;20.150;2022-08-03T11:04:39;100374.44;;;32.93;34.02
49423;BME280;36998;51.974;20.150;2022-08-03T11:07:33;100379.03;;;33.02;33.86
49423;BME280;36998;51.974;20.150;2022-08-03T11:10:00;100376.13;;;33.21;32.74
49423;BME280;36998;51.974;20.150;2022-08-03T11:12:28;100372.47;;;33.34;32.32
49423;BME280;36998;51.974;20.150;2022-08-03T11:14:55;100370.03;;;33.69;32.58
49423;BME280;36998;51.974;20.150;2022-08-03T11:17:21;100375.53;;;33.97;31.89
49423;BME280;36998;51.974;20.150;2022-08-03T11:19:49;100368.81;;;34.20;32.15
49423;BME280;36998;51.974;20.150;2022-08-03T11:22:15;100369.22;;;34.36;31.54
49423;BME280;36998;51.974;20.150;2022-08-03T11:30:16;100365.50;;;34.49;30.34
49423;BME280;36998;51.974;20.150;2022-08-03T11:32:58;100362.97;;;34.39;30.47
49423;BME280;36998;51.974;20.150;2022-08-03T11:35:31;100355.63;;;34.21;30.39
49423;BME280;36998;51.974;20.150;2022-08-03T11:40:40;100355.13;;;34.19;30.38
49423;BME280;36998;51.974;20.150;2022-08-03T11:48:49;100339.50;;;40.90;22.97
49423;BME280;36998;51.974;20.150;2022-08-03T11:51:26;100338.31;;;42.62;21.88
49423;BME280;36998;51.974;20.150;2022-08-03T11:53:56;100343.41;;;45.67;18.14
49423;BME280;36998;51.974;20.150;2022-08-03T11:56:22;100341.94;;;48.33;16.58
49423;BME280;36998;51.974;20.150;2022-08-03T11:58:50;100331.28;;;49.68;15.16
49423;BME280;36998;51.974;20.150;2022-08-03T12:01:19;100337.06;;;51.20;13.61
49423;BME280;36998;51.974;20.150;2022-08-03T12:03:46;100344.97;;;52.98;12.95
49423;BME280;36998;51.974;20.150;2022-08-03T12:06:13;100331.59;;;55.47;11.39
49423;BME280;36998;51.974;20.150;2022-08-03T12:08:40;100335.00;;;58.37;9.14
49423;BME280;36998;51.974;20.150;2022-08-03T12:11:13;100335.03;;;61.10;7.59
49423;BME280;36998;51.974;20.150;2022-08-03T12:16:08;100324.13;;;64.71;5.53
49423;BME280;36998;51.974;20.150;2022-08-03T12:18:35;100311.47;;;66.01;5.17
49423;BME280;36998;51.974;20.150;2022-08-03T12:21:08;100302.38;;;66.48;5.37
49423;BME280;36998;51.974;20.150;2022-08-03T12:23:35;100292.53;;;67.66;4.80
49423;BME280;36998;51.974;20.150;2022-08-03T12:26:22;100283.06;;;68.13;4.45
49423;BME280;36998;51.974;20.150;2022-08-03T12:28:49;100288.06;;;68.32;4.34
49423;BME280;36998;51.974;20.150;2022-08-03T12:31:14;100286.19;;;67.76;3.98
49423;BME280;36998;51.974;20.150;2022-08-03T12:33:57;100285.75;;;68.99;4.52
49423;BME280;36998;51.974;20.150;2022-08-03T12:36:23;100274.41;;;67.11;4.81
49423;BME280;36998;51.974;20.150;2022-08-03T12:38:58;100270.44;;;66.08;5.03
49423;BME280;36998;51.974;20.150;2022-08-03T12:41:35;100261.59;;;67.41;4.84
49423;BME280;36998;51.974;20.150;2022-08-03T12:44:03;100253.03;;;64.84;5.25
49423;BME280;36998;51.974;20.150;2022-08-03T12:46:34;100253.16;;;63.87;5.70
49423;BME280;36998;51.974;20.150;2022-08-03T12:49:08;100238.75;;;61.21;6.91
49423;BME280;36998;51.974;20.150;2022-08-03T12:51:58;100240.44;;;59.20;8.14
49423;BME280;36998;51.974;20.150;2022-08-03T12:54:26;100246.06;;;56.26;9.06
49423;BME280;36998;51.974;20.150;2022-08-03T12:59:33;100240.50;;;61.65;6.70
49423;BME280;36998;51.974;20.150;2022-08-03T13:02:28;100254.31;;;62.51;6.14
49423;BME280;36998;51.974;20.150;2022-08-03T13:04:54;100252.25;;;62.14;5.75
49423;BME280;36998;51.974;20.150;2022-08-03T13:07:20;100239.75;;;62.13;6.46
49423;BME280;36998;51.974;20.150;2022-08-03T13:10:07;100240.50;;;62.62;5.98
49423;BME280;36998;51.974;20.150;2022-08-03T13:12:47;100233.84;;;64.25;5.14
49423;BME280;36998;51.974;20.150;2022-08-03T13:15:13;100247.00;;;65.48;4.59
49423;BME280;36998;51.974;20.150;2022-08-03T13:17:42;100243.81;;;64.11;5.48
49423;BME280;36998;51.974;20.150;2022-08-03T13:20:07;100234.47;;;64.01;5.49
49423;BME280;36998;51.974;20.150;2022-08-03T13:22:33;100254.91;;;65.29;4.74
49423;BME280;36998;51.974;20.150;2022-08-03T13:24:59;100245.00;;;65.32;4.49
49423;BME280;36998;51.974;20.150;2022-08-03T13:27:26;100244.09;;;65.07;4.71
49423;BME280;36998;51.974;20.150;2022-08-03T13:29:53;100235.31;;;65.01;4.88